Terminal Aerodrome Forecast
Issued by NWS

Home | Current Version | Previous Version | Text Only | Print | Product List | Glossary On
Versions: 1 2 3 4 5 6 7 8 9 10 11 12 13 14 15 16
000
FTUS45 KTFX 230700 AAA
TAFHLN
TAF AMD
KHLN 230720Z 2307/2406 28011G18KT P6SM VCSH SCT045 BKN060
     FM231400 26011G18KT P6SM SCT020 BKN040
     FM231800 27015G25KT P6SM SCT070 BKN150
     FM240100 28010KT P6SM OVC070=

USA.gov is the U.S. government's official web portal to all federal, state and local government web resources and services.